createdAt,value
2023-02-08T00:00:02.093Z,103726.25
2023-02-08T00:02:28.651Z,103720.13
2023-02-08T00:04:55.236Z,103714.34
2023-02-08T00:07:21.744Z,103721.47
2023-02-08T00:09:48.380Z,103716.84
2023-02-08T00:12:14.885Z,103717.63
2023-02-08T00:14:41.467Z,103709.50
2023-02-08T00:17:07.964Z,103709.50
2023-02-08T00:19:34.496Z,103717.81
2023-02-08T00:22:01.014Z,103713.88
2023-02-08T00:24:27.517Z,103714.41
2023-02-08T00:26:54.124Z,103714.16
2023-02-08T00:29:20.694Z,103716.97
2023-02-08T00:31:47.253Z,103727.75
2023-02-08T00:34:13.828Z,103723.00
2023-02-08T00:36:40.433Z,103729.81
2023-02-08T00:39:08.212Z,103726.69
2023-02-08T00:41:34.747Z,103724.44
2023-02-08T00:44:01.272Z,103725.78
2023-02-08T00:46:28.780Z,103723.63
2023-02-08T00:48:55.317Z,103719.34
2023-02-08T00:51:21.898Z,103718.53
2023-02-08T00:53:49.834Z,103721.19
2023-02-08T00:56:16.551Z,103720.19
2023-02-08T00:58:43.691Z,103720.00
2023-02-08T01:01:10.979Z,103721.47
2023-02-08T01:03:39.514Z,103715.50
2023-02-08T01:06:09.374Z,103720.19
2023-02-08T01:08:36.743Z,103719.53
2023-02-08T01:11:09.954Z,103726.50
2023-02-08T01:13:38.131Z,103728.28
2023-02-08T01:16:11.640Z,103720.53
2023-02-08T01:18:39.653Z,103724.19
2023-02-08T01:21:09.511Z,103720.53
2023-02-08T01:23:36.380Z,103722.19
2023-02-08T01:26:03.569Z,103723.84
2023-02-08T01:28:30.124Z,103721.81
2023-02-08T01:30:56.780Z,103726.94
2023-02-08T01:33:23.291Z,103714.03
2023-02-08T01:35:51.855Z,103718.06
2023-02-08T01:38:18.805Z,103716.22
2023-02-08T01:40:45.664Z,103723.16
2023-02-08T01:43:32.902Z,103707.28
2023-02-08T01:45:59.681Z,103705.00
2023-02-08T01:48:29.671Z,103704.81
2023-02-08T01:51:00.739Z,103698.88
2023-02-08T01:53:28.966Z,103706.00
2023-02-08T01:55:57.801Z,103711.47
2023-02-08T01:58:25.468Z,103712.28
2023-02-08T02:00:52.001Z,103720.22
2023-02-08T02:03:20.733Z,103718.25
2023-02-08T02:05:50.284Z,103718.06
2023-02-08T02:08:16.853Z,103713.56
2023-02-08T02:10:44.113Z,103717.88
2023-02-08T02:13:15.475Z,103701.97
2023-02-08T02:15:45.528Z,103700.50
2023-02-08T02:18:15.628Z,103706.47
2023-02-08T02:20:52.451Z,103715.59
2023-02-08T02:23:37.719Z,103716.41
2023-02-08T02:26:38.319Z,103717.22
2023-02-08T02:29:32.895Z,103716.91
2023-02-08T02:32:00.214Z,103718.16
2023-02-08T02:34:31.527Z,103721.78
2023-02-08T02:37:12.084Z,103718.75
2023-02-08T02:40:02.932Z,103717.75
2023-02-08T02:42:58.599Z,103716.41
2023-02-08T02:45:33.438Z,103719.03
2023-02-08T02:48:08.102Z,103720.06
2023-02-08T02:50:43.653Z,103723.50
2023-02-08T02:53:12.382Z,103717.22
2023-02-08T02:55:42.803Z,103726.00
2023-02-08T02:58:10.980Z,103726.00
2023-02-08T03:00:38.055Z,103725.81
2023-02-08T03:03:04.972Z,103720.81
2023-02-08T03:05:31.693Z,103720.47
2023-02-08T03:08:18.451Z,103717.75
2023-02-08T03:10:57.065Z,103714.75
2023-02-08T03:13:55.019Z,103716.41
2023-02-08T03:16:32.972Z,103724.50
2023-02-08T03:19:10.160Z,103726.53
2023-02-08T03:21:59.046Z,103721.69
2023-02-08T03:24:33.242Z,103715.56
2023-02-08T03:27:33.829Z,103716.06
2023-02-08T03:30:10.730Z,103714.66
2023-02-08T03:32:48.375Z,103718.97
2023-02-08T03:35:22.468Z,103723.00
2023-02-08T03:37:58.802Z,103721.81
2023-02-08T03:40:31.719Z,103717.16
2023-02-08T03:43:01.547Z,103711.84
2023-02-08T03:45:33.586Z,103710.03
2023-02-08T03:48:03.208Z,103715.34
2023-02-08T03:50:31.082Z,103709.03
2023-02-08T03:52:58.105Z,103717.78
2023-02-08T03:55:26.427Z,103705.72
2023-02-08T03:57:59.413Z,103712.03
2023-02-08T04:00:26.149Z,103709.06
2023-02-08T04:02:56.396Z,103711.56
2023-02-08T04:05:24.159Z,103716.06
2023-02-08T04:07:51.233Z,103720.69
2023-02-08T04:10:17.804Z,103721.69
2023-02-08T04:12:45.010Z,103716.41
2023-02-08T04:15:11.538Z,103711.44
2023-02-08T04:17:38.077Z,103707.16
2023-02-08T04:20:05.230Z,103718.75
2023-02-08T04:22:31.711Z,103712.44
2023-02-08T04:24:58.207Z,103710.63
2023-02-08T04:27:24.701Z,103715.94
2023-02-08T04:29:51.177Z,103711.66
2023-02-08T04:32:17.714Z,103717.44
2023-02-08T04:34:44.204Z,103713.34
2023-02-08T04:37:11.079Z,103715.81
2023-02-08T04:39:37.705Z,103710.34
2023-02-08T04:42:04.229Z,103711.97
2023-02-08T04:44:32.910Z,103714.63
2023-02-08T04:47:00.193Z,103706.69
2023-02-08T04:49:26.720Z,103700.38
2023-02-08T04:51:53.283Z,103708.16
2023-02-08T04:54:19.907Z,103713.44
2023-02-08T04:56:46.841Z,103710.63
2023-02-08T04:59:13.328Z,103713.09
2023-02-08T05:01:39.891Z,103713.09
2023-02-08T05:04:06.443Z,103706.13
2023-02-08T05:06:33.398Z,103708.78
2023-02-08T05:08:59.887Z,103706.13
2023-02-08T05:11:26.689Z,103707.44
2023-02-08T05:13:53.328Z,103715.38
2023-02-08T05:16:19.953Z,103723.34
2023-02-08T05:18:46.754Z,103718.88
2023-02-08T05:21:13.543Z,103716.22
2023-02-08T05:23:40.120Z,103717.22
2023-02-08T05:26:11.249Z,103712.91
2023-02-08T05:28:38.164Z,103715.56
2023-02-08T05:31:19.698Z,103717.56
2023-02-08T05:33:46.628Z,103717.75
2023-02-08T05:36:13.163Z,103724.44
2023-02-08T05:38:39.708Z,103717.75
2023-02-08T05:41:06.368Z,103726.69
2023-02-08T05:43:33.072Z,103733.66
2023-02-08T05:45:59.565Z,103727.06
2023-02-08T05:48:26.124Z,103734.34
2023-02-08T05:50:52.626Z,103726.13
2023-02-08T05:53:19.176Z,103732.72
2023-02-08T05:55:46.459Z,103733.72
2023-02-08T05:58:13.109Z,103736.53
2023-02-08T06:00:40.357Z,103731.25
2023-02-08T06:03:07.158Z,103739.34
2023-02-08T06:05:33.964Z,103736.06
2023-02-08T06:08:00.533Z,103735.38
2023-02-08T06:10:27.047Z,103741.84
2023-02-08T06:12:53.537Z,103744.94
2023-02-08T06:15:20.018Z,103741.59
2023-02-08T06:17:46.519Z,103750.22
2023-02-08T06:20:13.059Z,103753.66
2023-02-08T06:22:39.656Z,103759.81
2023-02-08T06:25:06.954Z,103756.47
2023-02-08T06:27:33.523Z,103757.66
2023-02-08T06:30:00.115Z,103751.38
2023-02-08T06:32:26.655Z,103757.66
2023-02-08T06:34:53.183Z,103758.16
2023-02-08T06:37:19.680Z,103755.69
2023-02-08T06:39:46.209Z,103759.81
2023-02-08T06:42:12.918Z,103766.03
2023-02-08T06:44:48.411Z,103760.56
2023-02-08T06:47:20.602Z,103768.44
2023-02-08T06:49:47.118Z,103775.22
2023-02-08T06:52:13.628Z,103766.25
2023-02-08T06:54:40.154Z,103758.28
2023-02-08T06:57:08.341Z,103762.25
2023-02-08T06:59:35.155Z,103775.66
2023-02-08T07:02:01.856Z,103767.38
2023-02-08T07:04:28.417Z,103768.13
2023-02-08T07:06:54.915Z,103769.59
2023-02-08T07:09:21.656Z,103773.59
2023-02-08T07:11:48.170Z,103775.69
2023-02-08T07:14:15.567Z,103771.41
2023-02-08T07:16:42.182Z,103773.63
2023-02-08T07:19:08.812Z,103779.25
2023-02-08T07:21:35.374Z,103769.59
2023-02-08T07:24:01.879Z,103761.28
2023-02-08T07:26:28.445Z,103764.50
2023-02-08T07:28:54.978Z,103755.34
2023-02-08T07:31:21.518Z,103760.03
2023-02-08T07:33:48.170Z,103750.06
2023-02-08T07:36:14.772Z,103753.97
2023-02-08T07:38:41.272Z,103757.53
2023-02-08T07:41:10.101Z,103758.69
2023-02-08T07:43:38.331Z,103760.56
2023-02-08T07:46:17.021Z,103762.91
2023-02-08T07:48:43.608Z,103774.56
2023-02-08T07:51:10.564Z,103780.47
2023-02-08T07:53:37.640Z,103769.31
2023-02-08T07:56:04.620Z,103778.69
2023-02-08T07:58:31.124Z,103775.59
2023-02-08T08:00:59.621Z,103785.44
2023-02-08T08:03:26.966Z,103782.91
2023-02-08T08:05:55.035Z,103793.63
2023-02-08T08:08:21.569Z,103786.63
2023-02-08T08:10:49.461Z,103798.44
2023-02-08T08:13:16.332Z,103795.66
2023-02-08T08:15:42.972Z,103799.59
2023-02-08T08:18:09.496Z,103796.34
2023-02-08T08:20:36.135Z,103806.63
2023-02-08T08:23:02.629Z,103808.69
2023-02-08T08:25:29.290Z,103810.53
2023-02-08T08:27:56.127Z,103805.00
2023-02-08T08:30:22.799Z,103811.16
2023-02-08T08:32:49.334Z,103804.59
2023-02-08T08:35:15.938Z,103821.19
2023-02-08T08:37:42.493Z,103815.06
2023-02-08T08:40:09.974Z,103815.84
2023-02-08T08:42:36.952Z,103807.00
2023-02-08T08:45:04.515Z,103801.47
2023-02-08T08:47:31.387Z,103793.22
2023-02-08T08:49:57.910Z,103798.31
2023-02-08T08:52:24.570Z,103786.19
2023-02-08T08:54:53.424Z,103792.56
2023-02-08T08:57:20.027Z,103791.69
2023-02-08T08:59:46.694Z,103787.34
2023-02-08T09:02:14.032Z,103791.50
2023-02-08T09:04:43.453Z,103779.06
2023-02-08T09:07:10.826Z,103781.41
2023-02-08T09:09:37.589Z,103774.19
2023-02-08T09:12:04.445Z,103773.84
2023-02-08T09:14:30.934Z,103775.69
2023-02-08T09:16:57.544Z,103771.41
2023-02-08T09:19:24.098Z,103773.69
2023-02-08T09:21:50.667Z,103774.25
2023-02-08T09:24:17.228Z,103776.22
2023-02-08T09:26:45.944Z,103782.78
2023-02-08T09:29:14.794Z,103780.00
2023-02-08T09:31:42.163Z,103788.81
2023-02-08T09:34:11.912Z,103789.09
2023-02-08T09:36:40.465Z,103803.81
2023-02-08T09:39:11.018Z,103790.06
2023-02-08T09:41:56.189Z,103792.59
2023-02-08T09:44:35.466Z,103788.06
2023-02-08T09:47:09.869Z,103791.69
2023-02-08T09:49:56.899Z,103792.09
2023-02-08T09:52:29.514Z,103779.03
2023-02-08T09:55:01.030Z,103784.81
2023-02-08T09:57:31.931Z,103780.44
2023-02-08T10:00:13.384Z,103773.19
2023-02-08T10:02:41.415Z,103773.66
2023-02-08T10:05:12.598Z,103763.44
2023-02-08T10:07:40.776Z,103760.75
2023-02-08T10:10:38.066Z,103763.56
2023-02-08T10:13:19.502Z,103760.28
2023-02-08T10:15:58.925Z,103749.34
2023-02-08T10:18:54.808Z,103742.56
2023-02-08T10:21:42.638Z,103737.59
2023-02-08T10:24:12.074Z,103741.47
2023-02-08T10:26:46.912Z,103740.25
2023-02-08T10:29:25.255Z,103731.47
2023-02-08T10:32:29.631Z,103732.75
2023-02-08T10:35:06.056Z,103736.06
2023-02-08T10:37:37.230Z,103736.78
2023-02-08T10:40:26.300Z,103724.81
2023-02-08T10:43:04.013Z,103721.53
2023-02-08T10:45:38.172Z,103712.00
2023-02-08T10:48:11.860Z,103720.41
2023-02-08T10:50:43.806Z,103712.81
2023-02-08T10:53:16.738Z,103706.88
2023-02-08T10:55:46.850Z,103699.56
2023-02-08T10:58:26.287Z,103712.38
2023-02-08T11:00:54.056Z,103706.13
2023-02-08T11:03:25.470Z,103709.97
2023-02-08T11:05:53.222Z,103695.63
2023-02-08T11:08:22.476Z,103687.75
2023-02-08T11:10:56.441Z,103692.88
2023-02-08T11:13:25.114Z,103686.34
2023-02-08T11:15:56.701Z,103692.22
2023-02-08T11:18:24.389Z,103694.34
2023-02-08T11:20:57.480Z,103681.19
2023-02-08T11:23:29.756Z,103684.75
2023-02-08T11:26:15.361Z,103682.25
2023-02-08T11:28:42.523Z,103678.78
2023-02-08T11:31:20.317Z,103677.19
2023-02-08T11:34:03.680Z,103680.56
2023-02-08T11:36:32.841Z,103677.38
2023-02-08T11:39:15.844Z,103679.63
2023-02-08T11:41:46.428Z,103673.59
2023-02-08T11:44:19.770Z,103672.75
2023-02-08T11:46:48.552Z,103675.13
2023-02-08T11:49:27.588Z,103680.34
2023-02-08T11:51:54.345Z,103679.13
2023-02-08T11:54:33.681Z,103681.28
2023-02-08T11:57:11.593Z,103670.88
2023-02-08T11:59:38.230Z,103677.53
2023-02-08T12:02:29.323Z,103672.56
2023-02-08T12:04:56.814Z,103671.97
2023-02-08T12:07:46.527Z,103674.31
2023-02-08T12:10:21.781Z,103669.75
2023-02-08T12:13:01.184Z,103661.31
2023-02-08T12:16:06.222Z,103661.81
2023-02-08T12:19:10.182Z,103657.75
2023-02-08T12:21:43.709Z,103661.38
2023-02-08T12:24:25.605Z,103673.25
2023-02-08T12:27:27.481Z,103674.84
2023-02-08T12:30:23.345Z,103673.50
2023-02-08T12:32:58.678Z,103671.59
2023-02-08T12:35:45.859Z,103675.13
2023-02-08T12:39:19.417Z,103673.06
2023-02-08T12:42:00.599Z,103676.50
2023-02-08T12:45:04.691Z,103677.38
2023-02-08T12:48:03.651Z,103665.34
2023-02-08T12:50:56.658Z,103661.53
2023-02-08T12:53:31.372Z,103666.06
2023-02-08T12:56:01.082Z,103658.44
2023-02-08T12:58:31.463Z,103665.53
2023-02-08T13:01:10.508Z,103657.25
2023-02-08T13:03:55.117Z,103660.38
2023-02-08T13:06:24.091Z,103655.78
2023-02-08T13:09:13.989Z,103651.81
2023-02-08T13:11:46.607Z,103642.34
2023-02-08T13:14:38.170Z,103645.81
2023-02-08T13:17:13.075Z,103654.59
2023-02-08T13:19:59.752Z,103644.09
2023-02-08T13:22:28.447Z,103641.53
2023-02-08T13:25:06.287Z,103631.19
2023-02-08T13:27:34.517Z,103623.63
2023-02-08T13:30:01.923Z,103622.84
2023-02-08T13:32:31.166Z,103619.47
2023-02-08T13:35:01.432Z,103617.50
2023-02-08T13:37:31.704Z,103608.47
2023-02-08T13:40:07.850Z,103607.13
2023-02-08T13:42:39.669Z,103607.44
2023-02-08T13:45:08.372Z,103611.22
2023-02-08T13:47:45.774Z,103602.84
2023-02-08T13:50:40.258Z,103606.06
2023-02-08T13:53:07.163Z,103601.78
2023-02-08T13:55:45.893Z,103601.53
2023-02-08T13:58:15.593Z,103600.66
2023-02-08T14:00:54.771Z,103603.69
2023-02-08T14:03:29.108Z,103593.56
2023-02-08T14:06:17.080Z,103592.16
2023-02-08T14:08:53.478Z,103593.91
2023-02-08T14:11:33.956Z,103587.69
2023-02-08T14:14:03.615Z,103593.09
2023-02-08T14:16:38.976Z,103588.34
2023-02-08T14:19:22.319Z,103585.69
2023-02-08T14:22:03.901Z,103581.19
2023-02-08T14:24:34.518Z,103586.44
2023-02-08T14:27:22.709Z,103585.28
2023-02-08T14:30:02.980Z,103576.31
2023-02-08T14:32:31.531Z,103571.41
2023-02-08T14:35:05.917Z,103566.38
2023-02-08T14:37:36.657Z,103572.53
2023-02-08T14:40:35.144Z,103566.03
2023-02-08T14:43:19.908Z,103572.19
2023-02-08T14:45:53.982Z,103563.31
2023-02-08T14:48:49.902Z,103563.94
2023-02-08T14:51:25.245Z,103559.25
2023-02-08T14:53:57.681Z,103551.78
2023-02-08T14:56:30.033Z,103558.06
2023-02-08T14:59:06.834Z,103552.22
2023-02-08T15:01:53.533Z,103548.66
2023-02-08T15:04:20.576Z,103546.78
2023-02-08T15:06:56.740Z,103545.53
2023-02-08T15:09:27.340Z,103546.56
2023-02-08T15:12:02.932Z,103541.91
2023-02-08T15:14:31.824Z,103543.69
2023-02-08T15:16:58.492Z,103532.91
2023-02-08T15:19:34.351Z,103535.06
2023-02-08T15:22:26.555Z,103535.09
2023-02-08T15:25:00.113Z,103524.13
2023-02-08T15:27:29.973Z,103522.78
2023-02-08T15:29:57.133Z,103516.38
2023-02-08T15:32:26.106Z,103514.22
2023-02-08T15:34:59.102Z,103508.19
2023-02-08T15:37:26.610Z,103514.72
2023-02-08T15:40:01.074Z,103507.13
2023-02-08T15:42:31.860Z,103502.47
2023-02-08T15:45:04.878Z,103505.97
2023-02-08T15:47:38.121Z,103501.03
2023-02-08T15:50:07.863Z,103496.91
2023-02-08T15:52:36.035Z,103496.53
2023-02-08T15:55:05.788Z,103493.91
2023-02-08T15:57:46.295Z,103491.72
2023-02-08T16:00:18.277Z,103489.69
2023-02-08T16:02:51.692Z,103491.00
2023-02-08T16:05:21.856Z,103488.94
2023-02-08T16:07:48.974Z,103493.91
2023-02-08T16:10:34.058Z,103493.59
2023-02-08T16:13:04.947Z,103489.09
2023-02-08T16:15:44.946Z,103486.06
2023-02-08T16:18:33.773Z,103489.97
2023-02-08T16:21:02.535Z,103494.94
2023-02-08T16:23:34.127Z,103491.03
2023-02-08T16:26:27.562Z,103492.91
2023-02-08T16:29:17.532Z,103494.63
2023-02-08T16:31:46.668Z,103495.41
2023-02-08T16:34:18.454Z,103500.16
2023-02-08T16:36:50.390Z,103495.06
2023-02-08T16:39:39.829Z,103495.72
2023-02-08T16:42:22.825Z,103490.97
2023-02-08T16:45:01.160Z,103493.06
2023-02-08T16:47:38.722Z,103491.44
2023-02-08T16:50:11.062Z,103492.69
2023-02-08T16:52:37.939Z,103484.94
2023-02-08T16:55:04.874Z,103489.41
2023-02-08T16:57:44.643Z,103491.13
2023-02-08T17:00:16.827Z,103483.13
2023-02-08T17:02:43.874Z,103487.03
2023-02-08T17:05:10.987Z,103494.63
2023-02-08T17:07:37.563Z,103484.19
2023-02-08T17:10:08.369Z,103481.31
2023-02-08T17:12:37.018Z,103476.19
2023-02-08T17:15:03.648Z,103481.31
2023-02-08T17:17:30.949Z,103484.00
2023-02-08T17:20:03.807Z,103477.88
2023-02-08T17:22:30.353Z,103469.91
2023-02-08T17:24:57.083Z,103476.03
2023-02-08T17:27:23.664Z,103477.88
2023-02-08T17:29:52.555Z,103478.31
2023-02-08T17:32:19.377Z,103474.59
2023-02-08T17:34:45.968Z,103468.66
2023-02-08T17:37:12.483Z,103464.59
2023-02-08T17:39:39.024Z,103463.75
2023-02-08T17:42:05.631Z,103464.78
2023-02-08T17:44:32.182Z,103466.03
2023-02-08T17:46:58.826Z,103455.56
2023-02-08T17:49:25.487Z,103457.22
2023-02-08T17:51:52.044Z,103458.88
2023-02-08T17:54:20.808Z,103452.09
2023-02-08T17:56:47.359Z,103440.81
2023-02-08T17:59:13.967Z,103440.84
2023-02-08T18:01:40.791Z,103440.03
2023-02-08T18:04:09.310Z,103440.84
2023-02-08T18:06:35.870Z,103434.88
2023-02-08T18:09:02.516Z,103437.78
2023-02-08T18:11:29.098Z,103431.03
2023-02-08T18:13:55.621Z,103438.78
2023-02-08T18:16:24.464Z,103428.38
2023-02-08T18:18:51.113Z,103435.75
2023-02-08T18:21:21.267Z,103425.69
2023-02-08T18:23:51.944Z,103425.09
2023-02-08T18:26:20.835Z,103425.34
2023-02-08T18:28:47.644Z,103416.94
2023-02-08T18:31:16.570Z,103422.03
2023-02-08T18:33:43.997Z,103420.00
2023-02-08T18:36:13.490Z,103420.19
2023-02-08T18:38:53.407Z,103411.38
2023-02-08T18:41:32.154Z,103398.06
2023-02-08T18:43:59.512Z,103413.44
2023-02-08T18:46:29.551Z,103407.53
2023-02-08T18:48:56.435Z,103402.78
2023-02-08T18:51:24.068Z,103401.56
2023-02-08T18:53:53.084Z,103389.69
2023-02-08T18:56:47.643Z,103381.91
2023-02-08T18:59:19.137Z,103378.66
2023-02-08T19:01:45.811Z,103378.44
2023-02-08T19:04:12.404Z,103384.78
2023-02-08T19:06:39.016Z,103379.88
2023-02-08T19:09:07.561Z,103373.53
2023-02-08T19:11:36.102Z,103371.28
2023-02-08T19:14:05.259Z,103365.97
2023-02-08T19:16:33.390Z,103357.34
2023-02-08T19:19:01.157Z,103362.28
2023-02-08T19:21:28.617Z,103362.91
2023-02-08T19:23:58.106Z,103357.56
2023-02-08T19:26:26.565Z,103346.50
2023-02-08T19:28:57.677Z,103349.19
2023-02-08T19:31:28.454Z,103346.31
2023-02-08T19:33:58.699Z,103341.81
2023-02-08T19:36:28.865Z,103346.09
2023-02-08T19:38:55.922Z,103340.59
2023-02-08T19:41:25.105Z,103344.25
2023-02-08T19:43:52.353Z,103337.31
2023-02-08T19:46:22.287Z,103338.34
2023-02-08T19:48:50.046Z,103331.97
2023-02-08T19:51:17.090Z,103329.13
2023-02-08T19:53:43.831Z,103331.16
2023-02-08T19:56:16.013Z,103331.34
2023-02-08T19:58:43.217Z,103321.75
2023-02-08T20:01:13.194Z,103311.09
2023-02-08T20:03:40.648Z,103303.34
2023-02-08T20:06:33.586Z,103304.16
2023-02-08T20:09:04.031Z,103301.50
2023-02-08T20:11:54.764Z,103303.97
2023-02-08T20:14:31.626Z,103306.19
2023-02-08T20:16:58.891Z,103302.91
2023-02-08T20:19:26.098Z,103310.06
2023-02-08T20:21:52.804Z,103305.56
2023-02-08T20:24:19.497Z,103298.81
2023-02-08T20:26:46.714Z,103310.28
2023-02-08T20:29:14.489Z,103303.13
2023-02-08T20:31:43.534Z,103306.19
2023-02-08T20:34:13.280Z,103300.47
2023-02-08T20:36:44.084Z,103303.53
2023-02-08T20:39:15.033Z,103300.28
2023-02-08T20:41:44.353Z,103301.72
2023-02-08T20:44:12.538Z,103291.66
2023-02-08T20:46:39.130Z,103297.63
2023-02-08T20:49:07.033Z,103288.81
2023-02-08T20:51:34.434Z,103296.16
2023-02-08T20:54:01.867Z,103291.88
2023-02-08T20:56:34.170Z,103286.16
2023-02-08T20:59:05.487Z,103278.78
2023-02-08T21:01:34.575Z,103282.44
2023-02-08T21:04:01.302Z,103276.94
2023-02-08T21:06:29.887Z,103265.91
2023-02-08T21:08:57.926Z,103269.16
2023-02-08T21:11:27.583Z,103273.47
2023-02-08T21:13:54.814Z,103267.72
2023-02-08T21:16:21.633Z,103265.06
2023-02-08T21:18:48.227Z,103271.41
2023-02-08T21:21:15.355Z,103271.81
2023-02-08T21:23:42.893Z,103271.97
2023-02-08T21:26:12.962Z,103263.81
2023-02-08T21:28:39.670Z,103253.81
2023-02-08T21:31:13.294Z,103247.06
2023-02-08T21:33:39.975Z,103252.81
2023-02-08T21:36:10.398Z,103252.59
2023-02-08T21:38:37.200Z,103245.84
2023-02-08T21:41:14.457Z,103247.06
2023-02-08T21:43:41.004Z,103243.19
2023-02-08T21:46:08.830Z,103240.31
2023-02-08T21:48:55.810Z,103242.34
2023-02-08T21:51:42.041Z,103237.44
2023-02-08T21:54:29.742Z,103234.78
2023-02-08T21:56:58.500Z,103227.59
2023-02-08T21:59:25.297Z,103225.34
2023-02-08T22:01:51.840Z,103217.34
2023-02-08T22:04:18.495Z,103209.81
2023-02-08T22:06:45.182Z,103198.97
2023-02-08T22:09:11.727Z,103214.91
2023-02-08T22:11:38.242Z,103204.28
2023-02-08T22:14:04.806Z,103205.31
2023-02-08T22:16:31.321Z,103201.00
2023-02-08T22:18:57.881Z,103192.81
2023-02-08T22:21:24.487Z,103198.97
2023-02-08T22:23:51.859Z,103191.59
2023-02-08T22:26:18.519Z,103198.13
2023-02-08T22:28:45.105Z,103198.09
2023-02-08T22:31:13.762Z,103193.63
2023-02-08T22:33:40.386Z,103196.44
2023-02-08T22:36:08.834Z,103191.72
2023-02-08T22:38:35.892Z,103193.94
2023-02-08T22:41:02.451Z,103190.94
2023-02-08T22:43:29.312Z,103185.22
2023-02-08T22:45:58.097Z,103178.28
2023-02-08T22:48:24.862Z,103182.56
2023-02-08T22:50:51.392Z,103176.44
2023-02-08T22:53:19.817Z,103179.28
2023-02-08T22:55:56.124Z,103171.72
2023-02-08T22:58:23.028Z,103169.06
2023-02-08T23:00:49.693Z,103164.97
2023-02-08T23:03:16.886Z,103173.75
2023-02-08T23:05:46.150Z,103166.63
2023-02-08T23:08:13.431Z,103158.44
2023-02-08T23:10:40.256Z,103159.25
2023-02-08T23:13:07.397Z,103153.16
2023-02-08T23:15:37.253Z,103155.56
2023-02-08T23:18:04.243Z,103159.00
2023-02-08T23:20:30.854Z,103155.50
2023-02-08T23:22:57.394Z,103159.22
2023-02-08T23:25:23.930Z,103154.88
2023-02-08T23:27:50.451Z,103153.84
2023-02-08T23:30:17.059Z,103147.94
2023-02-08T23:32:43.775Z,103149.97
2023-02-08T23:35:10.501Z,103155.28
2023-02-08T23:37:37.430Z,103149.78
2023-02-08T23:40:04.913Z,103142.06
2023-02-08T23:42:31.524Z,103137.97
2023-02-08T23:44:59.939Z,103138.56
2023-02-08T23:47:28.161Z,103131.41
2023-02-08T23:49:54.742Z,103133.88
2023-02-08T23:52:21.675Z,103130.00
2023-02-08T23:54:48.262Z,103131.63
2023-02-08T23:57:14.943Z,103137.13
2023-02-08T23:59:41.702Z,103136.75
